Time;durP1;ratioP1;P1;durP2;ratioP2;P2;SDS_P1;SDS_P2;PMS_P1;PMS_P2;Temp;Humidity;BMP_temperature;BMP_pressure;BME280_temperature;BME280_humidity;BME280_pressure;Samples;Min_cycle;Max_cycle;Signal;HPM_P1;HPM_P2
2021/09/18 00:00:45;;;;;;;17.88;4.22;;;;;;;;;;5022786;28;20018;-37
2021/09/18 00:03:12;;;;;;;9.80;3.28;;;;;;;;;;5019238;28;20021;-37
2021/09/18 00:05:37;;;;;;;15.65;3.70;;;;;;;;;;5015714;28;20053;-37
2021/09/18 00:08:02;;;;;;;8.77;3.03;;;;;;;;;;5020726;28;20038;-37
2021/09/18 00:10:28;;;;;;;12.55;2.28;;;;;;;;;;5018830;28;20432;-37
2021/09/18 00:12:53;;;;;;;10.13;2.50;;;;;;;;;;5022696;28;20105;-37
2021/09/18 00:15:18;;;;;;;10.20;3.45;;;;;;;;;;5016133;28;20033;-39
2021/09/18 00:17:43;;;;;;;12.48;2.95;;;;;;;;;;5015128;28;20025;-37
2021/09/18 00:20:09;;;;;;;24.17;4.03;;;;;;;;;;5014122;28;20014;-37
2021/09/18 00:22:35;;;;;;;6.50;2.80;;;;;;;;;;5014513;28;20473;-37
2021/09/18 00:25:00;;;;;;;12.38;4.10;;;;;;;;;;5020945;28;20548;-37
2021/09/18 00:27:25;;;;;;;12.88;3.95;;;;;;;;;;5017702;28;20112;-37
2021/09/18 00:29:51;;;;;;;10.10;3.55;;;;;;;;;;5020255;28;20075;-37
2021/09/18 00:32:16;;;;;;;21.58;4.45;;;;;;;;;;5019916;28;20025;-37
2021/09/18 00:34:41;;;;;;;8.77;5.32;;;;;;;;;;5014037;28;20059;-37
2021/09/18 00:37:06;;;;;;;13.00;3.70;;;;;;;;;;5015239;28;20481;-37
2021/09/18 00:39:32;;;;;;;20.02;3.10;;;;;;;;;;5012844;28;20097;-37
2021/09/18 00:41:57;;;;;;;8.93;3.22;;;;;;;;;;5018016;28;20428;-37
2021/09/18 00:44:26;;;;;;;7.10;3.00;;;;;;;;;;5018380;28;20627;-37
2021/09/18 00:46:51;;;;;;;8.23;3.33;;;;;;;;;;5021136;28;20029;-37
2021/09/18 00:49:17;;;;;;;22.95;4.15;;;;;;;;;;5020399;28;20032;-37
2021/09/18 00:51:42;;;;;;;12.23;2.65;;;;;;;;;;5012201;28;20488;-37
2021/09/18 00:54:08;;;;;;;12.80;2.88;;;;;;;;;;5020798;28;20021;-37
2021/09/18 00:56:34;;;;;;;7.82;2.65;;;;;;;;;;5021523;28;20021;-37
2021/09/18 00:58:59;;;;;;;10.90;3.67;;;;;;;;;;5020430;28;20018;-37
2021/09/18 01:01:24;;;;;;;19.90;3.83;;;;;;;;;;5021116;28;20017;-37
2021/09/18 01:03:50;;;;;;;13.95;3.70;;;;;;;;;;5021718;28;20025;-37
2021/09/18 01:06:15;;;;;;;8.52;3.80;;;;;;;;;;5017209;28;20176;-37
2021/09/18 01:08:41;;;;;;;4.28;2.40;;;;;;;;;;5013673;28;20565;-37
2021/09/18 01:11:06;;;;;;;5.30;1.95;;;;;;;;;;5018058;28;20025;-37
2021/09/18 01:13:33;;;;;;;10.73;4.22;;;;;;;;;;5012551;28;20091;-37
2021/09/18 01:15:58;;;;;;;11.60;2.67;;;;;;;;;;5017428;28;20052;-37
2021/09/18 01:18:23;;;;;;;3.65;2.03;;;;;;;;;;5017506;28;20045;-37
2021/09/18 01:20:49;;;;;;;6.05;2.28;;;;;;;;;;5019196;28;20448;-37
2021/09/18 01:23:16;;;;;;;10.38;2.65;;;;;;;;;;5019395;28;20026;-37
2021/09/18 01:25:41;;;;;;;12.18;3.42;;;;;;;;;;5021463;28;20053;-37
2021/09/18 01:28:07;;;;;;;11.00;3.13;;;;;;;;;;5018288;28;20053;-37
2021/09/18 01:30:33;;;;;;;15.70;3.33;;;;;;;;;;5017505;28;20113;-37
2021/09/18 01:32:59;;;;;;;5.07;1.98;;;;;;;;;;5014172;28;20032;-37
2021/09/18 01:35:25;;;;;;;7.68;2.75;;;;;;;;;;5017670;28;20025;-37
2021/09/18 01:37:51;;;;;;;11.93;2.63;;;;;;;;;;5013160;28;20026;-37
2021/09/18 01:40:21;;;;;;;12.25;4.40;;;;;;;;;;5020567;28;20068;-36
2021/09/18 01:42:46;;;;;;;7.72;2.42;;;;;;;;;;5018044;28;20022;-37
2021/09/18 01:45:12;;;;;;;15.00;3.20;;;;;;;;;;5019923;28;20459;-37
2021/09/18 01:48:03;;;;;;;11.70;2.75;;;;;;;;;;5020113;28;20036;-37
2021/09/18 01:50:29;;;;;;;8.60;3.40;;;;;;;;;;5016287;28;20428;-37
2021/09/18 01:52:56;;;;;;;8.70;1.80;;;;;;;;;;5017113;28;20175;-37
2021/09/18 01:55:22;;;;;;;14.45;2.63;;;;;;;;;;5018307;28;20441;-36
2021/09/18 01:57:49;;;;;;;10.00;3.40;;;;;;;;;;5015603;28;20478;-37
2021/09/18 02:00:14;;;;;;;5.32;2.53;;;;;;;;;;5013642;28;20018;-37
2021/09/18 02:02:40;;;;;;;7.97;2.72;;;;;;;;;;5014127;28;20151;-37
2021/09/18 02:05:06;;;;;;;5.97;2.55;;;;;;;;;;5019305;28;20179;-37
2021/09/18 02:07:32;;;;;;;11.50;4.03;;;;;;;;;;5015396;28;20037;-37
2021/09/18 02:09:57;;;;;;;3.28;1.92;;;;;;;;;;5019545;28;20025;-37
2021/09/18 02:12:22;;;;;;;12.48;2.53;;;;;;;;;;5016109;28;20359;-37
2021/09/18 02:14:47;;;;;;;4.32;1.45;;;;;;;;;;5010612;28;20036;-37
2021/09/18 02:17:13;;;;;;;9.43;2.58;;;;;;;;;;5017428;28;20026;-37
2021/09/18 02:19:38;;;;;;;8.25;2.60;;;;;;;;;;5014409;28;20057;-37
2021/09/18 02:22:03;;;;;;;5.80;3.70;;;;;;;;;;5014637;28;20449;-37
2021/09/18 02:24:29;;;;;;;23.27;4.75;;;;;;;;;;5008910;28;20049;-37
2021/09/18 02:26:54;;;;;;;6.38;2.20;;;;;;;;;;5013604;28;20033;-37
2021/09/18 02:29:19;;;;;;;10.68;3.28;;;;;;;;;;5013884;28;20025;-37
2021/09/18 02:31:44;;;;;;;14.50;2.85;;;;;;;;;;5018141;28;20080;-37
2021/09/18 02:34:10;;;;;;;4.53;3.58;;;;;;;;;;5015194;28;20026;-37
2021/09/18 02:36:35;;;;;;;13.88;4.22;;;;;;;;;;5013385;28;20462;-37
2021/09/18 02:39:00;;;;;;;20.13;4.47;;;;;;;;;;5013619;28;20021;-37
2021/09/18 02:41:25;;;;;;;10.93;3.63;;;;;;;;;;5013749;28;20022;-37
2021/09/18 02:43:51;;;;;;;5.63;3.10;;;;;;;;;;5019413;28;20540;-37
2021/09/18 02:46:16;;;;;;;15.60;3.42;;;;;;;;;;5015042;28;20076;-37
2021/09/18 02:48:41;;;;;;;14.07;3.38;;;;;;;;;;5006839;28;20033;-37
2021/09/18 02:51:07;;;;;;;10.55;2.88;;;;;;;;;;5010639;28;20022;-37
2021/09/18 02:53:32;;;;;;;9.07;2.03;;;;;;;;;;5020425;28;20048;-37
2021/09/18 02:55:59;;;;;;;5.03;1.95;;;;;;;;;;5019636;28;20112;-37
2021/09/18 02:58:24;;;;;;;8.45;2.45;;;;;;;;;;5020882;28;20024;-37
2021/09/18 03:00:50;;;;;;;8.25;3.10;;;;;;;;;;5020523;28;20013;-37
2021/09/18 03:03:15;;;;;;;28.35;4.20;;;;;;;;;;5017846;28;20045;-37
2021/09/18 03:05:40;;;;;;;9.55;3.15;;;;;;;;;;5018465;28;20046;-37
2021/09/18 03:08:05;;;;;;;4.97;2.97;;;;;;;;;;5021156;28;20537;-37
2021/09/18 03:10:31;;;;;;;7.53;3.28;;;;;;;;;;5015632;28;20075;-37
2021/09/18 03:12:56;;;;;;;31.17;4.55;;;;;;;;;;5019331;28;20414;-37
2021/09/18 03:15:21;;;;;;;10.07;3.00;;;;;;;;;;5015954;28;20029;-37
2021/09/18 03:17:47;;;;;;;8.23;2.67;;;;;;;;;;5020310;28;20538;-37
2021/09/18 03:20:12;;;;;;;21.63;2.60;;;;;;;;;;5022141;28;20366;-37
2021/09/18 03:22:37;;;;;;;11.60;3.47;;;;;;;;;;5016057;28;20113;-37
2021/09/18 03:25:04;;;;;;;7.15;2.35;;;;;;;;;;5024021;28;20037;-37
2021/09/18 03:27:29;;;;;;;16.58;3.72;;;;;;;;;;5020323;28;20076;-37
2021/09/18 03:29:54;;;;;;;9.95;3.60;;;;;;;;;;5014023;28;20395;-37
2021/09/18 03:32:20;;;;;;;7.10;2.72;;;;;;;;;;5020418;28;20034;-37
2021/09/18 03:34:45;;;;;;;9.95;4.45;;;;;;;;;;5022136;28;20026;-37
2021/09/18 03:37:10;;;;;;;12.40;4.25;;;;;;;;;;5021220;28;20018;-37
2021/09/18 03:39:36;;;;;;;25.10;4.22;;;;;;;;;;5019684;28;20037;-37
2021/09/18 03:42:01;;;;;;;3.35;2.55;;;;;;;;;;5023230;28;20018;-37
2021/09/18 03:44:27;;;;;;;14.93;2.58;;;;;;;;;;5024377;28;20025;-37
2021/09/18 03:46:52;;;;;;;9.93;3.03;;;;;;;;;;5020077;28;20028;-37
2021/09/18 03:49:17;;;;;;;11.88;2.60;;;;;;;;;;5022239;28;20033;-37
2021/09/18 03:51:43;;;;;;;10.60;3.53;;;;;;;;;;5018038;28;20532;-37
2021/09/18 03:54:08;;;;;;;6.50;2.25;;;;;;;;;;5019419;28;20124;-37
2021/09/18 03:56:33;;;;;;;10.30;3.38;;;;;;;;;;5017847;28;20688;-37
2021/09/18 03:58:58;;;;;;;11.55;2.92;;;;;;;;;;5016658;28;20513;-37
2021/09/18 04:01:24;;;;;;;14.23;3.47;;;;;;;;;;5016148;28;20010;-38
2021/09/18 04:03:49;;;;;;;6.45;3.83;;;;;;;;;;5023207;28;20084;-37
2021/09/18 04:06:14;;;;;;;18.55;3.30;;;;;;;;;;5020037;28;20061;-37
2021/09/18 04:08:40;;;;;;;12.55;3.65;;;;;;;;;;5016690;28;20044;-37
2021/09/18 04:11:05;;;;;;;8.65;3.08;;;;;;;;;;5020642;28;20026;-37
2021/09/18 04:13:30;;;;;;;5.95;2.50;;;;;;;;;;5017300;28;20021;-37
2021/09/18 04:15:56;;;;;;;13.93;4.82;;;;;;;;;;5016304;28;20358;-37
2021/09/18 04:18:21;;;;;;;10.60;4.40;;;;;;;;;;5017711;28;20018;-37
2021/09/18 04:20:46;;;;;;;4.70;2.78;;;;;;;;;;5017288;28;20032;-37
2021/09/18 04:23:11;;;;;;;5.32;2.30;;;;;;;;;;5019360;28;20040;-36
2021/09/18 04:25:37;;;;;;;10.20;3.67;;;;;;;;;;5019189;28;20088;-36
2021/09/18 04:28:02;;;;;;;21.88;3.53;;;;;;;;;;5018559;28;20104;-37
2021/09/18 04:30:28;;;;;;;7.07;2.63;;;;;;;;;;5018320;28;20029;-37
2021/09/18 04:32:53;;;;;;;8.50;3.22;;;;;;;;;;5017801;28;20033;-37
2021/09/18 04:35:18;;;;;;;14.63;3.25;;;;;;;;;;5016734;28;20087;-37
2021/09/18 04:37:43;;;;;;;6.75;3.38;;;;;;;;;;5018110;28;20619;-37
2021/09/18 04:40:09;;;;;;;9.07;4.30;;;;;;;;;;5014995;28;20037;-37
2021/09/18 04:42:34;;;;;;;8.75;2.72;;;;;;;;;;5014256;28;20018;-37
2021/09/18 04:45:00;;;;;;;10.43;3.65;;;;;;;;;;5013886;28;20029;-37
2021/09/18 04:47:25;;;;;;;16.33;3.80;;;;;;;;;;5020206;28;20025;-37
2021/09/18 04:49:50;;;;;;;11.38;3.72;;;;;;;;;;5017829;28;20084;-37
2021/09/18 04:52:16;;;;;;;5.55;2.13;;;;;;;;;;5019840;28;20484;-37
2021/09/18 04:54:41;;;;;;;6.47;3.05;;;;;;;;;;5019553;28;20025;-37
2021/09/18 04:57:06;;;;;;;8.73;2.95;;;;;;;;;;5014901;28;20030;-37
2021/09/18 04:59:32;;;;;;;12.73;4.00;;;;;;;;;;5021008;28;20543;-36
2021/09/18 05:01:57;;;;;;;9.30;3.50;;;;;;;;;;5015153;28;20018;-37
2021/09/18 05:04:22;;;;;;;9.10;2.72;;;;;;;;;;5019518;28;20680;-37
2021/09/18 05:06:47;;;;;;;8.05;3.90;;;;;;;;;;5018502;28;20129;-37
2021/09/18 05:09:13;;;;;;;8.82;2.72;;;;;;;;;;5020069;28;20437;-37
2021/09/18 05:11:40;;;;;;;19.13;6.03;;;;;;;;;;5012430;28;20477;-36
2021/09/18 05:14:05;;;;;;;21.10;4.60;;;;;;;;;;5012378;28;20088;-37
2021/09/18 05:16:30;;;;;;;14.50;3.75;;;;;;;;;;5016849;28;20053;-37
2021/09/18 05:18:56;;;;;;;21.15;4.57;;;;;;;;;;5020612;28;20080;-37
2021/09/18 05:21:21;;;;;;;8.65;3.22;;;;;;;;;;5015762;28;20021;-37
2021/09/18 05:23:46;;;;;;;12.70;2.80;;;;;;;;;;5017258;28;20025;-36
2021/09/18 05:26:12;;;;;;;14.77;4.55;;;;;;;;;;5015505;28;20039;-37
2021/09/18 05:28:37;;;;;;;6.55;3.85;;;;;;;;;;5014028;28;20022;-37
2021/09/18 05:31:03;;;;;;;12.65;4.68;;;;;;;;;;5016327;28;20014;-36
2021/09/18 05:33:28;;;;;;;13.55;3.00;;;;;;;;;;5014964;28;20484;-37
2021/09/18 05:35:53;;;;;;;13.27;4.03;;;;;;;;;;5019646;28;20032;-37
2021/09/18 05:38:19;;;;;;;16.10;3.35;;;;;;;;;;5020980;28;20492;-36
2021/09/18 05:40:44;;;;;;;10.07;3.25;;;;;;;;;;5016794;28;20050;-36
2021/09/18 05:43:09;;;;;;;12.40;4.38;;;;;;;;;;5015309;28;20112;-37
2021/09/18 05:45:34;;;;;;;8.52;3.38;;;;;;;;;;5016883;28;20525;-36
2021/09/18 05:48:03;;;;;;;14.82;3.97;;;;;;;;;;5015649;28;20510;-37
2021/09/18 05:50:28;;;;;;;13.70;3.50;;;;;;;;;;5010285;28;20064;-37
2021/09/18 05:52:54;;;;;;;14.90;5.35;;;;;;;;;;5019152;28;20724;-37
2021/09/18 05:55:19;;;;;;;11.30;3.30;;;;;;;;;;5019626;28;20467;-36
2021/09/18 05:57:44;;;;;;;10.35;3.42;;;;;;;;;;5021360;28;20018;-37
2021/09/18 06:00:10;;;;;;;23.85;4.32;;;;;;;;;;5014457;28;20484;-36
2021/09/18 06:02:35;;;;;;;7.97;2.92;;;;;;;;;;5019932;28;20036;-37
2021/09/18 06:05:01;;;;;;;17.70;3.70;;;;;;;;;;5015944;28;20658;-36
2021/09/18 06:07:26;;;;;;;10.38;2.95;;;;;;;;;;5010796;28;20548;-37
2021/09/18 06:09:51;;;;;;;13.50;3.88;;;;;;;;;;5019680;28;20437;-37
2021/09/18 06:12:17;;;;;;;23.17;4.68;;;;;;;;;;5012758;28;20025;-36
2021/09/18 06:14:42;;;;;;;8.90;2.85;;;;;;;;;;5015787;28;20018;-36
2021/09/18 06:17:07;;;;;;;13.60;5.55;;;;;;;;;;5015500;28;20021;-36
2021/09/18 06:19:32;;;;;;;13.50;3.85;;;;;;;;;;5014252;28;20025;-36
2021/09/18 06:21:58;;;;;;;9.30;3.80;;;;;;;;;;5015056;28;20025;-36
2021/09/18 06:24:23;;;;;;;12.45;3.72;;;;;;;;;;5012122;28;20325;-37
2021/09/18 06:26:49;;;;;;;18.80;3.83;;;;;;;;;;5016939;28;20021;-36
2021/09/18 06:29:14;;;;;;;6.00;3.13;;;;;;;;;;5021406;28;20535;-37
2021/09/18 06:31:40;;;;;;;16.23;3.83;;;;;;;;;;5022218;28;20025;-37
2021/09/18 06:34:05;;;;;;;18.48;4.25;;;;;;;;;;5022117;28;20025;-37
2021/09/18 06:36:30;;;;;;;17.35;6.90;;;;;;;;;;5021475;28;20282;-37
2021/09/18 06:38:56;;;;;;;25.45;3.95;;;;;;;;;;5018133;28;20164;-37
2021/09/18 06:41:21;;;;;;;11.18;4.32;;;;;;;;;;5020597;28;20422;-36
2021/09/18 06:43:48;;;;;;;10.10;3.22;;;;;;;;;;5021055;28;20591;-37
2021/09/18 06:46:13;;;;;;;6.72;3.35;;;;;;;;;;5019860;28;20144;-37
2021/09/18 06:48:38;;;;;;;14.32;3.65;;;;;;;;;;5021938;28;20100;-36
2021/09/18 06:51:04;;;;;;;10.20;4.03;;;;;;;;;;5021820;28;20026;-36
2021/09/18 06:53:29;;;;;;;12.05;4.75;;;;;;;;;;5019325;28;20632;-37
2021/09/18 06:55:54;;;;;;;16.48;10.57;;;;;;;;;;5019813;28;20034;-37
2021/09/18 06:58:20;;;;;;;23.80;17.50;;;;;;;;;;5014006;28;20022;-36
2021/09/18 07:00:45;;;;;;;16.73;12.98;;;;;;;;;;5018053;28;20033;-37
2021/09/18 07:03:10;;;;;;;27.73;11.05;;;;;;;;;;5016168;28;20495;-36
2021/09/18 07:05:35;;;;;;;32.17;11.15;;;;;;;;;;5018578;28;20128;-37
2021/09/18 07:08:01;;;;;;;33.33;7.55;;;;;;;;;;5022717;28;20028;-36
2021/09/18 07:10:26;;;;;;;19.17;8.32;;;;;;;;;;5022511;28;20026;-36
2021/09/18 07:12:52;;;;;;;10.15;7.38;;;;;;;;;;5020268;28;20022;-37
2021/09/18 07:15:17;;;;;;;13.05;5.40;;;;;;;;;;5019144;28;20144;-36
2021/09/18 07:17:42;;;;;;;24.20;3.95;;;;;;;;;;5019413;28;20101;-37
2021/09/18 07:20:08;;;;;;;8.45;4.28;;;;;;;;;;5018632;28;20427;-37
2021/09/18 07:22:34;;;;;;;9.25;4.13;;;;;;;;;;5014742;28;20450;-37
2021/09/18 07:24:59;;;;;;;8.35;3.42;;;;;;;;;;5012337;28;20500;-37
2021/09/18 07:27:24;;;;;;;13.60;3.17;;;;;;;;;;5013388;28;20548;-36
2021/09/18 07:29:51;;;;;;;17.50;3.97;;;;;;;;;;5018568;28;20105;-37
2021/09/18 07:32:17;;;;;;;10.90;4.88;;;;;;;;;;5014070;28;20023;-37
2021/09/18 07:34:42;;;;;;;9.38;5.95;;;;;;;;;;5020994;28;20081;-37
2021/09/18 07:37:08;;;;;;;14.93;4.57;;;;;;;;;;5017515;28;20039;-37
2021/09/18 07:39:33;;;;;;;10.00;3.45;;;;;;;;;;5018121;28;20025;-37
2021/09/18 07:41:58;;;;;;;18.67;3.80;;;;;;;;;;5020162;28;20032;-38
2021/09/18 07:44:24;;;;;;;13.40;4.70;;;;;;;;;;5024013;28;20067;-37
2021/09/18 07:46:49;;;;;;;14.70;5.72;;;;;;;;;;5018283;28;20022;-36
2021/09/18 07:49:16;;;;;;;6.65;3.42;;;;;;;;;;5021986;28;20030;-37
2021/09/18 07:51:42;;;;;;;45.42;11.32;;;;;;;;;;5015880;28;20497;-37
2021/09/18 07:54:07;;;;;;;14.02;4.07;;;;;;;;;;5018845;28;20032;-37
2021/09/18 07:56:32;;;;;;;10.63;4.82;;;;;;;;;;5019564;28;20029;-37
2021/09/18 07:58:57;;;;;;;12.15;8.32;;;;;;;;;;5022503;28;20541;-36
2021/09/18 08:01:24;;;;;;;37.17;15.43;;;;;;;;;;5022282;28;20621;-37
2021/09/18 08:03:50;;;;;;;23.77;15.88;;;;;;;;;;5023452;28;20029;-37
2021/09/18 08:06:15;;;;;;;31.75;14.77;;;;;;;;;;5024801;28;20049;-38
2021/09/18 08:08:40;;;;;;;29.63;15.45;;;;;;;;;;5020537;28;20879;-37
2021/09/18 08:11:06;;;;;;;15.15;7.20;;;;;;;;;;5014181;28;20018;-37
2021/09/18 08:13:31;;;;;;;13.38;6.63;;;;;;;;;;5019715;28;20026;-37
2021/09/18 08:15:56;;;;;;;25.23;12.23;;;;;;;;;;5020690;28;20160;-37
2021/09/18 08:18:22;;;;;;;23.00;8.90;;;;;;;;;;5017563;28;20009;-37
2021/09/18 08:20:47;;;;;;;48.17;30.52;;;;;;;;;;5023047;28;20548;-37
2021/09/18 08:23:13;;;;;;;30.98;16.70;;;;;;;;;;5019336;28;20027;-37
2021/09/18 08:25:38;;;;;;;13.85;6.95;;;;;;;;;;5019885;28;20485;-36
2021/09/18 08:28:04;;;;;;;11.50;5.15;;;;;;;;;;5015876;28;20068;-36
2021/09/18 08:30:29;;;;;;;9.27;3.63;;;;;;;;;;5014768;28;20176;-37
2021/09/18 08:32:54;;;;;;;17.13;4.55;;;;;;;;;;5020131;28;20139;-37
2021/09/18 08:35:20;;;;;;;12.68;3.20;;;;;;;;;;5010466;28;20226;-37
2021/09/18 08:37:45;;;;;;;6.30;4.20;;;;;;;;;;5020380;28;20029;-37
2021/09/18 08:40:11;;;;;;;9.65;3.20;;;;;;;;;;5020597;28;20127;-37
2021/09/18 08:42:40;;;;;;;10.80;3.90;;;;;;;;;;5023648;28;20410;-37
2021/09/18 08:45:06;;;;;;;20.48;3.55;;;;;;;;;;5013885;28;20071;-37
2021/09/18 08:47:32;;;;;;;17.15;4.32;;;;;;;;;;5022680;28;20148;-37
2021/09/18 08:49:58;;;;;;;13.43;3.28;;;;;;;;;;5016043;28;20044;-37
2021/09/18 08:52:24;;;;;;;12.57;3.10;;;;;;;;;;5021101;28;20022;-37
2021/09/18 08:54:49;;;;;;;21.13;3.83;;;;;;;;;;5020469;28;20013;-37
2021/09/18 08:57:14;;;;;;;15.77;4.18;;;;;;;;;;5023038;28;20118;-37
2021/09/18 08:59:41;;;;;;;11.95;2.78;;;;;;;;;;5018783;28;20021;-37
2021/09/18 09:02:28;;;;;;;13.07;2.83;;;;;;;;;;5019291;28;20048;-37
2021/09/18 09:05:04;;;;;;;6.05;3.05;;;;;;;;;;5009536;28;20498;-37
2021/09/18 09:07:29;;;;;;;16.73;3.45;;;;;;;;;;5012472;28;20117;-37
2021/09/18 09:10:02;;;;;;;18.67;4.07;;;;;;;;;;5011899;28;20200;-37
2021/09/18 09:12:27;;;;;;;6.75;2.17;;;;;;;;;;5018784;28;20032;-37
2021/09/18 09:14:53;;;;;;;11.20;2.78;;;;;;;;;;5021134;28;20021;-36
2021/09/18 09:17:29;;;;;;;12.45;2.85;;;;;;;;;;5020264;28;20049;-37
2021/09/18 09:19:56;;;;;;;14.90;2.55;;;;;;;;;;5019149;28;20018;-37
2021/09/18 09:22:42;;;;;;;15.85;3.67;;;;;;;;;;5019187;28;20742;-37
2021/09/18 09:25:27;;;;;;;5.90;1.45;;;;;;;;;;5020715;28;20029;-39
2021/09/18 09:27:53;;;;;;;9.48;4.28;;;;;;;;;;5006641;28;20564;-37
2021/09/18 09:30:33;;;;;;;9.77;2.05;;;;;;;;;;5011759;28;20104;-37
2021/09/18 09:33:05;;;;;;;9.05;2.38;;;;;;;;;;5016182;28;20022;-37
2021/09/18 09:35:31;;;;;;;17.83;3.63;;;;;;;;;;5020331;28;20044;-37
2021/09/18 09:37:57;;;;;;;7.78;2.80;;;;;;;;;;5019659;28;20022;-37
2021/09/18 09:40:39;;;;;;;6.35;3.13;;;;;;;;;;5015436;28;20017;-37
2021/09/18 09:43:06;;;;;;;17.83;4.65;;;;;;;;;;5011343;28;20093;-37
2021/09/18 09:45:32;;;;;;;18.00;3.85;;;;;;;;;;5015604;28;20068;-36
2021/09/18 09:48:05;;;;;;;12.68;3.38;;;;;;;;;;5019820;28;20492;-37
2021/09/18 09:50:31;;;;;;;7.35;3.78;;;;;;;;;;5015756;28;20021;-37
2021/09/18 09:52:56;;;;;;;5.97;3.22;;;;;;;;;;5008806;28;20018;-37
2021/09/18 09:55:22;;;;;;;8.35;2.80;;;;;;;;;;5014078;28;20039;-37
2021/09/18 09:58:08;;;;;;;10.63;3.72;;;;;;;;;;5015518;28;20022;-37
2021/09/18 10:00:46;;;;;;;16.88;4.63;;;;;;;;;;5021334;28;20175;-37
2021/09/18 10:03:11;;;;;;;9.60;2.83;;;;;;;;;;5019831;28;20167;-37
2021/09/18 10:05:37;;;;;;;4.53;2.65;;;;;;;;;;5016972;28;20611;-37
2021/09/18 10:08:03;;;;;;;16.08;1.95;;;;;;;;;;5017410;28;20116;-37
2021/09/18 10:10:28;;;;;;;6.93;2.08;;;;;;;;;;5019477;28;20468;-37
2021/09/18 10:12:55;;;;;;;10.02;2.90;;;;;;;;;;5013919;28;20079;-37
2021/09/18 10:15:23;;;;;;;6.90;2.72;;;;;;;;;;5009121;28;20048;-37
2021/09/18 10:17:48;;;;;;;8.57;2.72;;;;;;;;;;5018302;28;20045;-37
2021/09/18 10:23:13;;;;;;;3.67;2.13;;;;;;;;;;5019196;28;20041;-37
2021/09/18 10:23:14;;;;;;;12.20;3.05;;;;;;;;;;5018920;28;20046;-37
2021/09/18 10:25:42;;;;;;;4.93;3.03;;;;;;;;;;5022233;28;20034;-37
2021/09/18 10:28:09;;;;;;;9.85;4.15;;;;;;;;;;5019384;28;20083;-37
2021/09/18 10:30:47;;;;;;;7.57;2.92;;;;;;;;;;5017449;28;20461;-37
2021/09/18 10:33:31;;;;;;;14.10;2.65;;;;;;;;;;5016150;28;20068;-37
2021/09/18 10:36:01;;;;;;;3.40;2.03;;;;;;;;;;5015345;28;20029;-37
2021/09/18 10:38:27;;;;;;;9.88;1.92;;;;;;;;;;5013927;28;20087;-37
2021/09/18 10:40:53;;;;;;;5.13;2.25;;;;;;;;;;5017698;28;20168;-37
2021/09/18 10:43:29;;;;;;;3.22;2.03;;;;;;;;;;5015307;28;20018;-37
2021/09/18 10:45:55;;;;;;;4.72;2.20;;;;;;;;;;5012244;28;20160;-37
2021/09/18 10:48:34;;;;;;;7.13;1.65;;;;;;;;;;5018599;28;20112;-37
2021/09/18 10:51:00;;;;;;;6.25;2.63;;;;;;;;;;5018796;28;20026;-37
2021/09/18 10:53:25;;;;;;;10.43;2.25;;;;;;;;;;5020076;28;20034;-37
2021/09/18 10:55:52;;;;;;;7.63;2.50;;;;;;;;;;5015102;28;20295;-37
2021/09/18 10:58:17;;;;;;;7.05;2.28;;;;;;;;;;5012300;28;20411;-37
2021/09/18 11:00:44;;;;;;;10.88;2.65;;;;;;;;;;5017438;28;20505;-37
2021/09/18 11:03:10;;;;;;;12.52;2.50;;;;;;;;;;5020806;28;20026;-37
2021/09/18 11:05:38;;;;;;;6.78;2.33;;;;;;;;;;5011361;28;20061;-37
2021/09/18 11:08:18;;;;;;;25.52;4.72;;;;;;;;;;5020723;28;20040;-37
2021/09/18 11:10:43;;;;;;;5.90;2.95;;;;;;;;;;5011950;28;20087;-37
2021/09/18 11:13:09;;;;;;;4.47;1.53;;;;;;;;;;5012449;28;20498;-37
2021/09/18 11:15:43;;;;;;;26.42;3.08;;;;;;;;;;5020059;28;20275;-41
2021/09/18 11:18:08;;;;;;;3.22;2.03;;;;;;;;;;5020318;28;20104;-38
2021/09/18 11:20:35;;;;;;;16.75;2.92;;;;;;;;;;5020356;28;20163;-37
2021/09/18 11:23:00;;;;;;;5.20;2.90;;;;;;;;;;5019470;28;20050;-37
2021/09/18 11:25:25;;;;;;;5.55;1.67;;;;;;;;;;5015002;28;20521;-37
2021/09/18 11:28:04;;;;;;;6.70;3.97;;;;;;;;;;5021412;28;20504;-37
2021/09/18 11:30:41;;;;;;;12.40;2.80;;;;;;;;;;5013357;28;20026;-37
2021/09/18 11:33:07;;;;;;;15.10;3.08;;;;;;;;;;5017993;28;20041;-38
2021/09/18 11:35:33;;;;;;;7.50;4.25;;;;;;;;;;5016255;28;20029;-37
2021/09/18 11:37:59;;;;;;;5.95;2.70;;;;;;;;;;5007021;28;20061;-37
2021/09/18 11:40:26;;;;;;;2.33;1.92;;;;;;;;;;5018683;28;20684;-37
2021/09/18 11:42:54;;;;;;;22.70;3.40;;;;;;;;;;5019936;28;20036;-37
2021/09/18 11:45:21;;;;;;;9.88;1.90;;;;;;;;;;5017283;28;20385;-37
2021/09/18 11:47:47;;;;;;;2.83;1.52;;;;;;;;;;5016218;28;20072;-37
2021/09/18 11:50:18;;;;;;;9.93;1.80;;;;;;;;;;5019853;28;20022;-37
2021/09/18 11:52:44;;;;;;;7.03;2.42;;;;;;;;;;5016214;28;20079;-37
2021/09/18 11:55:24;;;;;;;4.32;1.80;;;;;;;;;;5013978;28;20433;-37
2021/09/18 11:58:10;;;;;;;4.30;1.52;;;;;;;;;;5014553;28;20018;-37
2021/09/18 12:00:37;;;;;;;6.47;3.05;;;;;;;;;;5009866;28;20029;-37
2021/09/18 12:03:03;;;;;;;6.30;2.08;;;;;;;;;;5018034;28;20544;-37
2021/09/18 12:05:28;;;;;;;5.15;1.35;;;;;;;;;;5018570;28;20061;-37
2021/09/18 12:07:56;;;;;;;5.85;2.17;;;;;;;;;;5020364;28;20060;-37
2021/09/18 12:10:22;;;;;;;18.20;3.67;;;;;;;;;;5019100;28;20036;-37
2021/09/18 12:12:53;;;;;;;2.45;1.85;;;;;;;;;;5015839;28;20026;-41
2021/09/18 12:15:32;;;;;;;5.50;2.58;;;;;;;;;;5013236;28;20032;-37
2021/09/18 12:17:57;;;;;;;12.30;1.90;;;;;;;;;;5018254;28;20092;-37
2021/09/18 12:20:23;;;;;;;11.27;1.88;;;;;;;;;;5019027;28;20137;-37
2021/09/18 12:22:48;;;;;;;8.52;2.60;;;;;;;;;;5020450;28;20754;-37
2021/09/18 12:25:14;;;;;;;9.48;2.33;;;;;;;;;;5020019;28;20018;-37
2021/09/18 12:27:40;;;;;;;14.10;2.22;;;;;;;;;;5024557;28;20017;-38
2021/09/18 12:30:10;;;;;;;6.63;2.63;;;;;;;;;;5014693;28;20104;-37
2021/09/18 12:32:35;;;;;;;14.55;2.15;;;;;;;;;;5020322;28;20409;-37
2021/09/18 12:35:08;;;;;;;13.57;3.30;;;;;;;;;;5020314;28;20026;-37
2021/09/18 12:37:35;;;;;;;7.18;2.67;;;;;;;;;;5015303;28;20017;-37
2021/09/18 12:40:09;;;;;;;6.20;1.90;;;;;;;;;;5022792;28;20017;-37
2021/09/18 12:42:35;;;;;;;6.80;2.08;;;;;;;;;;5020496;28;20070;-37
2021/09/18 12:45:00;;;;;;;8.32;2.67;;;;;;;;;;5013988;28;20056;-37
2021/09/18 12:47:25;;;;;;;15.82;2.67;;;;;;;;;;5017360;28;20393;-37
2021/09/18 12:49:51;;;;;;;8.73;3.22;;;;;;;;;;5018022;28;20087;-37
2021/09/18 12:52:16;;;;;;;6.28;1.77;;;;;;;;;;5020091;28;20686;-37
2021/09/18 12:54:46;;;;;;;10.85;2.88;;;;;;;;;;5021802;28;20335;-37
2021/09/18 12:57:11;;;;;;;6.85;1.95;;;;;;;;;;5020769;28;20026;-37
2021/09/18 12:59:43;;;;;;;14.65;2.83;;;;;;;;;;5017325;28;20017;-37
2021/09/18 13:02:09;;;;;;;11.95;2.97;;;;;;;;;;5017369;28;20108;-37
2021/09/18 13:04:34;;;;;;;11.00;2.50;;;;;;;;;;5012467;28;20124;-37
2021/09/18 13:07:07;;;;;;;11.13;3.78;;;;;;;;;;5017261;28;20128;-37
2021/09/18 13:09:37;;;;;;;9.77;4.53;;;;;;;;;;5013062;28;20053;-38
2021/09/18 13:12:09;;;;;;;11.37;4.53;;;;;;;;;;5018169;28;20057;-37
2021/09/18 13:14:37;;;;;;;9.10;3.15;;;;;;;;;;5021324;28;20519;-37
2021/09/18 13:17:08;;;;;;;8.63;2.55;;;;;;;;;;5018236;28;20053;-37
2021/09/18 13:19:46;;;;;;;10.85;3.33;;;;;;;;;;5020424;28;20025;-37
2021/09/18 13:22:12;;;;;;;9.55;3.65;;;;;;;;;;5015048;28;20044;-37
2021/09/18 13:24:38;;;;;;;12.27;2.40;;;;;;;;;;5017177;28;20165;-37
2021/09/18 13:27:03;;;;;;;11.15;5.38;;;;;;;;;;5016711;28;20159;-37
2021/09/18 13:29:28;;;;;;;12.80;3.83;;;;;;;;;;5020972;28;20108;-37
2021/09/18 13:31:53;;;;;;;4.65;2.42;;;;;;;;;;5016531;28;20025;-37
2021/09/18 13:34:19;;;;;;;7.97;2.25;;;;;;;;;;5016860;28;20076;-37
2021/09/18 13:36:44;;;;;;;11.25;4.15;;;;;;;;;;5012277;28;20025;-37
2021/09/18 13:39:10;;;;;;;8.30;2.80;;;;;;;;;;5016616;28;20021;-37
2021/09/18 13:41:35;;;;;;;9.50;2.55;;;;;;;;;;5014697;28;20018;-37
2021/09/18 13:44:00;;;;;;;6.85;3.28;;;;;;;;;;5013705;28;20110;-37
2021/09/18 13:46:26;;;;;;;8.00;3.47;;;;;;;;;;5018356;28;20029;-37
2021/09/18 13:48:51;;;;;;;11.48;2.47;;;;;;;;;;5017863;28;20024;-37
2021/09/18 13:51:16;;;;;;;7.32;2.72;;;;;;;;;;5018893;28;20384;-38
2021/09/18 13:53:42;;;;;;;5.68;2.63;;;;;;;;;;5019583;28;20022;-37
2021/09/18 13:56:07;;;;;;;6.50;2.92;;;;;;;;;;5019415;28;20088;-38
2021/09/18 13:58:33;;;;;;;9.20;3.10;;;;;;;;;;5015997;28;20014;-37
2021/09/18 14:00:58;;;;;;;7.03;2.72;;;;;;;;;;5015381;28;20571;-37
2021/09/18 14:03:24;;;;;;;9.55;3.40;;;;;;;;;;5015143;28;20044;-37
2021/09/18 14:05:49;;;;;;;6.13;3.10;;;;;;;;;;5009165;28;20112;-37
2021/09/18 14:08:15;;;;;;;11.55;3.40;;;;;;;;;;5016966;28;20027;-38
2021/09/18 14:10:40;;;;;;;15.15;3.47;;;;;;;;;;5020350;28;20034;-37
2021/09/18 14:13:05;;;;;;;10.10;3.88;;;;;;;;;;5018591;28;20025;-37
2021/09/18 14:15:31;;;;;;;18.17;4.22;;;;;;;;;;5015933;28;20022;-37
2021/09/18 14:17:56;;;;;;;6.10;3.03;;;;;;;;;;5010233;28;20025;-37
2021/09/18 14:20:21;;;;;;;13.02;3.53;;;;;;;;;;5014688;28;20657;-37
2021/09/18 14:22:47;;;;;;;13.20;3.33;;;;;;;;;;5019383;28;20629;-37
2021/09/18 14:25:13;;;;;;;8.82;2.97;;;;;;;;;;5016092;28;20022;-37
2021/09/18 14:27:38;;;;;;;9.93;4.07;;;;;;;;;;5018490;28;20112;-37
2021/09/18 14:30:05;;;;;;;8.90;3.53;;;;;;;;;;5013906;28;20787;-37
2021/09/18 14:32:30;;;;;;;11.55;3.67;;;;;;;;;;5016954;28;20029;-37